• Join FlightAware (Why Join?)
  • Login
  • US Flag 
09:09PM EDT


 

Airport Tracker/Info


-or-


 

Live Flight TrackerFlight Track Log ✈ DAL6048 ✈ 12-Apr-2013 ✈ KMHT - KLGA

Flight Track Log - Related Links

Times and Time Zones

All times are in EDT time to prevent confusion due to time zone crossing. See the DAL6048 flight status page for this flight to view local times or setup timezone preferences in your user account.

Time Position Orientation Groundspeed Altitude Reporting Facility
EDT Latitude Longitude Course Direction KTS MPH feet Rate Location/Type
09:33AM 42.9500 -71.4167 North 164 189 1,300  Level KA90
09:34AM 42.9833 -71.4097 North 174 200 2,700 1,560 Climbing Boston Center
09:35AM 43.0356 -71.4033 North 271 312 3,900 2,100 Climbing Boston Center
09:36AM 43.0758 -71.5022 299° West 252 290 6,900 2,220 Climbing Boston Center
09:37AM 43.0975 -71.5842 290° West 257 296 9,000 1,980 Climbing Boston Center
09:38AM 43.0794 -71.6925 257° West 239 275 11,400 1,980 Climbing Boston Center
09:39AM 43.0175 -71.7672 221° Southwest 260 299 12,900 1,380 Climbing Boston Center
09:40AM 42.9594 -71.8331 220° Southwest 300 345 14,200 1,500 Climbing Boston Center
09:41AM 42.8911 -71.9103 220° Southwest 307 353 16,000 840 Climbing Boston Center
09:42AM 42.8289 -71.9786 219° Southwest 307 353 15,900 540 Descending Boston Center
09:43AM 42.7583 -72.0583 220° Southwest 306 352 17,100 1,020 Climbing Boston Center
09:44AM 42.7000 -72.1236 219° Southwest 306 352 18,000 420 Climbing Boston Center
09:45AM 42.6211 -72.2117 219° Southwest 317 365 18,000  Level Boston Center
09:46AM 42.5442 -72.2881 216° Southwest 349 402 18,000  Level Boston Center
09:47AM 42.4692 -72.3781 222° Southwest 356 410 18,000  Level Boston Center
09:48AM 42.3942 -72.4625 220° Southwest 362 417 18,000  Level Boston Center
09:49AM 42.3275 -72.5328 218° Southwest 350 403 18,000 -540 Level Boston Center
09:50AM 42.2544 -72.6253 223° Southwest 339 390 17,000 -1,020 Descending Boston Center
09:51AM 42.1978 -72.7147 229° Southwest 322 371 16,000 -540 Descending Boston Center
09:52AM 42.1519 -72.7872 230° Southwest 322 371 16,000  Level Boston Center
09:53AM 42.0828 -72.8961 229° Southwest 322 371 16,000  Level Boston Center
09:54AM 42.0239 -72.9850 228° Southwest 322 371 16,000  Level Boston Center
09:56AM 41.9631 -73.0822 230° Southwest 339 390 16,000  Level Boston Center
09:57AM 41.8936 -73.1875 228° Southwest 329 379 16,000  Level Boston Center
09:58AM 41.8389 -73.2733 229° Southwest 295 339 16,000  Level Boston Center
09:59AM 41.7861 -73.3533 229° Southwest 271 312 16,000  Level Boston Center
10:00AM 41.7458 -73.4139 228° Southwest 246 283 16,000  Level Boston Center
10:01AM 41.6994 -73.4856 229° Southwest 221 254 16,000  Level Boston Center
10:02AM 41.6614 -73.5378 226° Southwest 221 254 16,000  Level Boston Center
10:03AM 41.6169 -73.6092 230° Southwest 226 260 16,000  Level Boston Center
10:04AM 41.5808 -73.6639 229° Southwest 226 260 16,000 -60 Level Boston Center
10:05AM 41.5364 -73.7269 227° Southwest 226 260 15,900 -720 Descending Boston Center
10:06AM 41.5025 -73.7817 230° Southwest 221 254 14,600 -1,020 Descending Boston Center
10:07AM 41.4622 -73.8444 229° Southwest 216 249 14,000 -420 Descending Boston Center
10:08AM 41.4261 -73.8992 229° Southwest 216 249 13,800 -480 Descending Boston Center
10:09AM 41.4458 -73.9797 288° West 209 241 13,100 -420 Descending Boston Center
10:10AM 41.5108 -73.9453 22° Northeast 166 191 13,000 -60 Descending Boston Center
10:11AM 41.5747 -73.8525 47° Northeast 272 313 13,000  Level Boston Center
10:12AM 41.6256 -73.7703 50° Northeast 306 352 13,000  Level Boston Center
10:13AM 41.5931 -73.6919 119° Southeast 235 270 13,000  Level Boston Center
10:14AM 41.5492 -73.7161 202° Southwest 130 150 13,000  Level Boston Center
10:15AM 41.5067 -73.7789 228° Southwest 180 207 13,000  Level Boston Center
10:16AM 41.4728 -73.8253 226° Southwest 214 246 13,000  Level Boston Center
10:17AM 41.4303 -73.8908 229° Southwest 214 246 13,000  Level Boston Center
10:18AM 41.4336 -73.9603 274° West 197 227 13,000  Level Boston Center
10:19AM 41.5047 -73.9453 North 150 173 13,000  Level Boston Center
10:20AM 41.5578 -73.8661 48° Northeast 250 288 13,000  Level Boston Center
10:21AM 41.6131 -73.7672 53° Northeast 303 349 13,000 -420 Level Boston Center
10:22AM 41.6167 -73.6500 88° East 280 322 12,200 -1,260 Descending New York TRACON
10:23AM 41.5833 -73.5833 124° Southeast 245 282 10,600 -1,560 Descending New York TRACON
10:24AM 41.5333 -73.6333 217° Southwest 194 223 9,300 -780 Descending New York TRACON
10:25AM 41.4833 -73.6667 207° Southwest 191 220 9,000 -540 Descending New York TRACON
10:26AM 41.4500 -73.7167 228° Southwest 186 214 8,200 -1,200 Descending New York TRACON
10:27AM 41.4000 -73.7500 207° Southwest 189 217 6,700 -1,380 Descending New York TRACON
10:28AM 41.3667 -73.7833 217° Southwest 182 209 5,600 -900 Descending New York TRACON
10:29AM 41.3167 -73.7667 166° South 180 207 5,000 -300 Descending New York TRACON
10:30AM 41.2667 -73.7333 153° Southeast 183 211 5,000 -300 Level New York TRACON
10:31AM 41.2333 -73.7000 143° Southeast 180 207 4,500 -540 Descending New York TRACON
10:32AM 41.2000 -73.6667 143° Southeast 175 201 4,000 -300 Descending New York TRACON
10:33AM 41.1500 -73.6333 153° Southeast 174 200 4,000  Level New York TRACON